createdAt,value
2017-11-15T00:00:14.183Z,7.93
2017-11-15T00:00:54.764Z,7.87
2017-11-15T00:01:35.319Z,7.88
2017-11-15T00:02:15.944Z,7.85
2017-11-15T00:02:56.488Z,7.9
2017-11-15T00:03:37.144Z,7.88
2017-11-15T00:04:17.745Z,7.83
2017-11-15T00:04:58.390Z,7.85
2017-11-15T00:05:39.001Z,7.95
2017-11-15T00:06:19.579Z,7.98
2017-11-15T00:07:00.148Z,8.01
2017-11-15T00:07:40.782Z,7.95
2017-11-15T00:08:21.465Z,8.05
2017-11-15T00:09:02.099Z,8
2017-11-15T00:09:42.687Z,8.08
2017-11-15T00:10:23.280Z,8.06
2017-11-15T00:11:03.865Z,8
2017-11-15T00:11:44.478Z,8.12
2017-11-15T00:12:25.057Z,8.06
2017-11-15T00:13:05.623Z,8.01
2017-11-15T00:13:46.244Z,8.06
2017-11-15T00:14:26.827Z,8.01
2017-11-15T00:15:07.407Z,8.16
2017-11-15T00:15:48.024Z,8.15
2017-11-15T00:16:28.581Z,8.12
2017-11-15T00:17:09.181Z,8.13
2017-11-15T00:17:49.782Z,8.01
2017-11-15T00:18:30.377Z,8.05
2017-11-15T00:19:10.999Z,8.05
2017-11-15T00:19:51.566Z,8.05
2017-11-15T00:20:32.176Z,8.13
2017-11-15T00:21:12.765Z,8.15
2017-11-15T00:21:53.335Z,8.09
2017-11-15T00:22:33.926Z,8.16
2017-11-15T00:23:14.492Z,8.13
2017-11-15T00:23:55.129Z,8.18
2017-11-15T00:24:35.724Z,8.15
2017-11-15T00:25:16.310Z,8.15
2017-11-15T00:25:56.899Z,8.16
2017-11-15T00:26:37.504Z,8.1
2017-11-15T00:27:18.087Z,8.12
2017-11-15T00:27:58.691Z,8.2
2017-11-15T00:28:39.292Z,8.23
2017-11-15T00:29:19.884Z,8.23
2017-11-15T00:30:00.479Z,8.19
2017-11-15T00:30:41.096Z,8.19
2017-11-15T00:31:21.718Z,8.2
2017-11-15T00:32:02.350Z,8.15
2017-11-15T00:32:42.975Z,8.13
2017-11-15T00:33:23.632Z,8.18
2017-11-15T00:34:04.244Z,8.15
2017-11-15T00:34:44.831Z,8.19
2017-11-15T00:35:25.406Z,8.18
2017-11-15T00:36:05.982Z,8.18
2017-11-15T00:36:46.555Z,8.12
2017-11-15T00:37:27.139Z,8.13
2017-11-15T00:38:07.757Z,8.15
2017-11-15T00:38:48.381Z,8.16
2017-11-15T00:39:29.050Z,8.16
2017-11-15T00:40:09.652Z,8.15
2017-11-15T00:40:50.244Z,8.12
2017-11-15T00:41:30.838Z,8.18
2017-11-15T00:42:11.469Z,8.15
2017-11-15T00:42:52.085Z,8.09
2017-11-15T00:43:32.668Z,8.12
2017-11-15T00:44:13.249Z,8.08
2017-11-15T00:44:53.850Z,8.16
2017-11-15T00:45:34.434Z,8.1
2017-11-15T00:46:15.015Z,8.1
2017-11-15T00:46:55.600Z,8.08
2017-11-15T00:47:36.190Z,8.18
2017-11-15T00:48:16.796Z,8.13
2017-11-15T00:48:57.386Z,8.08
2017-11-15T00:49:37.986Z,8.13
2017-11-15T00:50:18.581Z,8.18
2017-11-15T00:50:59.164Z,8.12
2017-11-15T00:51:39.785Z,8.1
2017-11-15T00:52:20.398Z,8.1
2017-11-15T00:53:01.017Z,8.18
2017-11-15T00:53:41.629Z,8.15
2017-11-15T00:54:22.232Z,8.18
2017-11-15T00:55:02.817Z,8.15
2017-11-15T00:55:43.414Z,8.12
2017-11-15T00:56:24.029Z,8.13
2017-11-15T00:57:04.615Z,8.15
2017-11-15T00:57:45.204Z,8.18
2017-11-15T00:58:25.789Z,8.16
2017-11-15T00:59:06.385Z,8.13
2017-11-15T00:59:46.963Z,8.15
2017-11-15T01:00:27.540Z,8.24
2017-11-15T01:01:08.123Z,8.19
2017-11-15T01:01:48.746Z,8.19
2017-11-15T01:02:29.353Z,8.15
2017-11-15T01:03:09.950Z,8.16
2017-11-15T01:03:50.521Z,8.18
2017-11-15T01:04:31.130Z,8.13
2017-11-15T01:05:11.754Z,8.13
2017-11-15T01:05:52.334Z,8.15
2017-11-15T01:06:32.925Z,8.06
2017-11-15T01:07:13.502Z,8.1
2017-11-15T01:07:54.089Z,8.15
2017-11-15T01:08:34.701Z,8.05
2017-11-15T01:09:15.265Z,8.01
2017-11-15T01:09:55.838Z,8.01
2017-11-15T01:10:36.433Z,8.03
2017-11-15T01:11:17.023Z,8.01
2017-11-15T01:11:57.594Z,7.98
2017-11-15T01:12:38.194Z,7.93
2017-11-15T01:13:18.746Z,8.03
2017-11-15T01:13:59.315Z,7.98
2017-11-15T01:14:39.903Z,7.91
2017-11-15T01:15:20.483Z,7.98
2017-11-15T01:16:01.058Z,7.95
2017-11-15T01:16:41.630Z,7.93
2017-11-15T01:17:22.287Z,7.98
2017-11-15T01:18:02.923Z,7.97
2017-11-15T01:18:43.551Z,7.94
2017-11-15T01:19:24.136Z,7.97
2017-11-15T01:20:04.717Z,7.97
2017-11-15T01:20:45.288Z,7.9
2017-11-15T01:21:25.855Z,7.97
2017-11-15T01:22:06.409Z,7.9
2017-11-15T01:22:46.965Z,7.88
2017-11-15T01:23:27.533Z,7.88
2017-11-15T01:24:08.118Z,7.85
2017-11-15T01:24:48.685Z,7.9
2017-11-15T01:25:29.250Z,7.9
2017-11-15T01:26:09.851Z,7.97
2017-11-15T01:26:50.460Z,7.83
2017-11-15T01:27:31.049Z,7.95
2017-11-15T01:28:11.624Z,7.87
2017-11-15T01:28:52.217Z,7.85
2017-11-15T01:29:32.834Z,7.82
2017-11-15T01:30:13.427Z,7.88
2017-11-15T01:30:54.037Z,7.9
2017-11-15T01:31:34.632Z,7.87
2017-11-15T01:32:15.237Z,7.9
2017-11-15T01:32:55.817Z,7.85
2017-11-15T01:33:36.382Z,7.85
2017-11-15T01:34:16.946Z,7.82
2017-11-15T01:34:57.516Z,7.85
2017-11-15T01:35:38.091Z,7.88
2017-11-15T01:36:18.662Z,7.87
2017-11-15T01:36:59.237Z,7.88
2017-11-15T01:37:39.849Z,7.85
2017-11-15T01:38:20.427Z,7.93
2017-11-15T01:39:01.010Z,7.9
2017-11-15T01:39:41.581Z,7.8
2017-11-15T01:40:22.162Z,7.85
2017-11-15T01:41:02.766Z,7.87
2017-11-15T01:41:43.346Z,7.85
2017-11-15T01:42:23.938Z,7.9
2017-11-15T01:43:04.547Z,7.85
2017-11-15T01:43:45.123Z,7.82
2017-11-15T01:44:25.727Z,7.85
2017-11-15T01:45:06.284Z,7.82
2017-11-15T01:45:46.867Z,7.9
2017-11-15T01:46:27.446Z,7.94
2017-11-15T01:47:08.011Z,7.9
2017-11-15T01:47:48.631Z,7.91
2017-11-15T01:48:29.220Z,7.77
2017-11-15T01:49:09.812Z,7.75
2017-11-15T01:49:50.468Z,7.85
2017-11-15T01:50:31.036Z,7.76
2017-11-15T01:51:11.622Z,7.83
2017-11-15T01:51:52.199Z,7.8
2017-11-15T01:52:32.785Z,7.77
2017-11-15T01:53:13.377Z,7.76
2017-11-15T01:53:53.978Z,7.85
2017-11-15T01:54:34.603Z,7.8
2017-11-15T01:55:15.221Z,7.9
2017-11-15T01:55:55.826Z,7.77
2017-11-15T01:56:36.415Z,7.82
2017-11-15T01:57:16.995Z,7.79
2017-11-15T01:57:57.587Z,7.77
2017-11-15T01:58:38.168Z,7.82
2017-11-15T01:59:18.786Z,7.8
2017-11-15T01:59:59.389Z,7.9
2017-11-15T02:00:39.991Z,7.82
2017-11-15T02:01:20.569Z,7.88
2017-11-15T02:02:01.150Z,7.88
2017-11-15T02:02:41.730Z,7.94
2017-11-15T02:03:22.317Z,7.83
2017-11-15T02:04:02.891Z,7.88
2017-11-15T02:04:43.461Z,7.87
2017-11-15T02:05:24.054Z,7.85
2017-11-15T02:06:04.634Z,7.9
2017-11-15T02:06:45.231Z,7.93
2017-11-15T02:07:25.823Z,7.8
2017-11-15T02:08:06.372Z,7.9
2017-11-15T02:08:46.939Z,7.82
2017-11-15T02:09:27.516Z,7.77
2017-11-15T02:10:08.095Z,7.9
2017-11-15T02:10:48.712Z,7.83
2017-11-15T02:11:29.307Z,7.8
2017-11-15T02:12:09.891Z,7.76
2017-11-15T02:12:50.479Z,7.88
2017-11-15T02:13:31.049Z,7.85
2017-11-15T02:14:11.636Z,7.77
2017-11-15T02:14:52.211Z,7.87
2017-11-15T02:15:32.801Z,7.88
2017-11-15T02:16:13.367Z,7.87
2017-11-15T02:16:53.974Z,7.9
2017-11-15T02:17:34.565Z,7.93
2017-11-15T02:18:15.151Z,7.83
2017-11-15T02:18:55.740Z,7.91
2017-11-15T02:19:36.318Z,7.88
2017-11-15T02:20:16.900Z,7.88
2017-11-15T02:20:57.497Z,7.87
2017-11-15T02:21:38.081Z,7.9
2017-11-15T02:22:18.656Z,8
2017-11-15T02:22:59.257Z,7.93
2017-11-15T02:23:39.855Z,7.95
2017-11-15T02:24:20.426Z,7.9
2017-11-15T02:25:01.006Z,8
2017-11-15T02:25:41.586Z,7.95
2017-11-15T02:26:22.149Z,7.94
2017-11-15T02:27:02.705Z,7.88
2017-11-15T02:27:43.273Z,7.91
2017-11-15T02:28:23.842Z,7.93
2017-11-15T02:29:04.430Z,7.82
2017-11-15T02:29:45.022Z,7.9
2017-11-15T02:30:25.666Z,7.87
2017-11-15T02:31:06.255Z,7.85
2017-11-15T02:31:46.842Z,7.93
2017-11-15T02:32:27.448Z,7.87
2017-11-15T02:33:08.035Z,7.93
2017-11-15T02:33:48.627Z,7.82
2017-11-15T02:34:29.207Z,7.82
2017-11-15T02:35:09.816Z,7.91
2017-11-15T02:35:50.402Z,7.79
2017-11-15T02:36:30.994Z,7.82
2017-11-15T02:37:11.588Z,7.73
2017-11-15T02:37:52.169Z,7.79
2017-11-15T02:38:32.735Z,7.7
2017-11-15T02:39:13.294Z,7.76
2017-11-15T02:39:53.889Z,7.73
2017-11-15T02:40:34.467Z,7.76
2017-11-15T02:41:15.179Z,7.75
2017-11-15T02:41:55.749Z,7.76
2017-11-15T02:42:36.335Z,7.76
2017-11-15T02:43:16.914Z,7.77
2017-11-15T02:43:57.480Z,7.73
2017-11-15T02:44:38.076Z,7.77
2017-11-15T02:45:18.687Z,7.7
2017-11-15T02:45:59.268Z,7.77
2017-11-15T02:46:39.940Z,7.8
2017-11-15T02:47:20.525Z,7.79
2017-11-15T02:48:01.100Z,7.76
2017-11-15T02:48:41.658Z,7.82
2017-11-15T02:49:22.245Z,7.77
2017-11-15T02:50:02.830Z,7.91
2017-11-15T02:50:43.411Z,7.9
2017-11-15T02:51:24.006Z,7.8
2017-11-15T02:52:04.555Z,7.9
2017-11-15T02:52:45.146Z,7.87
2017-11-15T02:53:25.728Z,7.77
2017-11-15T02:54:06.310Z,7.82
2017-11-15T02:54:46.891Z,7.83
2017-11-15T02:55:27.470Z,7.87
2017-11-15T02:56:08.049Z,7.79
2017-11-15T02:56:48.637Z,7.82
2017-11-15T02:57:29.210Z,7.77
2017-11-15T02:58:09.800Z,7.88
2017-11-15T02:58:50.368Z,7.9
2017-11-15T02:59:30.921Z,7.91
2017-11-15T03:00:11.495Z,7.9
2017-11-15T03:00:52.063Z,7.88
2017-11-15T03:01:32.646Z,7.9
2017-11-15T03:02:13.231Z,7.88
2017-11-15T03:02:53.813Z,7.9
2017-11-15T03:03:34.394Z,7.85
2017-11-15T03:04:14.975Z,7.9
2017-11-15T03:04:55.573Z,7.88
2017-11-15T03:05:36.141Z,7.87
2017-11-15T03:06:16.755Z,7.88
2017-11-15T03:06:57.327Z,7.91
2017-11-15T03:07:37.893Z,7.79
2017-11-15T03:08:18.476Z,7.88
2017-11-15T03:08:59.063Z,7.9
2017-11-15T03:09:39.630Z,7.88
2017-11-15T03:10:20.230Z,7.83
2017-11-15T03:11:00.814Z,7.87
2017-11-15T03:11:41.392Z,7.9
2017-11-15T03:12:21.968Z,7.8
2017-11-15T03:13:02.539Z,7.85
2017-11-15T03:13:43.093Z,7.9
2017-11-15T03:14:23.661Z,7.93
2017-11-15T03:15:04.294Z,7.94
2017-11-15T03:15:44.894Z,7.88
2017-11-15T03:16:25.490Z,7.93
2017-11-15T03:17:06.095Z,7.87
2017-11-15T03:17:46.658Z,7.87
2017-11-15T03:18:27.230Z,7.87
2017-11-15T03:19:07.809Z,7.9
2017-11-15T03:19:48.397Z,7.9
2017-11-15T03:20:29.014Z,7.87
2017-11-15T03:21:09.595Z,7.87
2017-11-15T03:21:50.183Z,7.82
2017-11-15T03:22:30.789Z,7.91
2017-11-15T03:23:11.350Z,7.94
2017-11-15T03:23:51.913Z,7.8
2017-11-15T03:24:32.494Z,7.8
2017-11-15T03:25:13.054Z,7.85
2017-11-15T03:25:53.616Z,7.87
2017-11-15T03:26:34.166Z,7.82
2017-11-15T03:27:14.778Z,7.85
2017-11-15T03:27:55.351Z,7.91
2017-11-15T03:28:35.911Z,7.85
2017-11-15T03:29:16.475Z,7.93
2017-11-15T03:29:57.080Z,7.8
2017-11-15T03:30:37.675Z,7.83
2017-11-15T03:31:18.231Z,7.9
2017-11-15T03:31:58.876Z,7.79
2017-11-15T03:32:39.466Z,7.79
2017-11-15T03:33:20.038Z,7.8
2017-11-15T03:34:00.631Z,7.91
2017-11-15T03:34:41.240Z,7.79
2017-11-15T03:35:21.812Z,7.79
2017-11-15T03:36:02.402Z,7.77
2017-11-15T03:36:42.997Z,7.76
2017-11-15T03:37:23.599Z,7.75
2017-11-15T03:38:04.179Z,7.73
2017-11-15T03:38:44.746Z,7.76
2017-11-15T03:39:25.379Z,7.73
2017-11-15T03:40:05.973Z,7.73
2017-11-15T03:40:46.586Z,7.76
2017-11-15T03:41:27.168Z,7.69
2017-11-15T03:42:07.753Z,7.76
2017-11-15T03:42:48.321Z,7.82
2017-11-15T03:43:28.915Z,7.73
2017-11-15T03:44:09.505Z,7.7
2017-11-15T03:44:50.081Z,7.63
2017-11-15T03:45:30.682Z,7.66
2017-11-15T03:46:11.270Z,7.61
2017-11-15T03:46:51.848Z,7.69
2017-11-15T03:47:32.432Z,7.66
2017-11-15T03:48:13.052Z,7.66
2017-11-15T03:48:53.625Z,7.63
2017-11-15T03:49:34.197Z,7.69
2017-11-15T03:50:14.795Z,7.66
2017-11-15T03:50:55.453Z,7.61
2017-11-15T03:51:36.053Z,7.6
2017-11-15T03:52:16.665Z,7.67
2017-11-15T03:52:57.245Z,7.63
2017-11-15T03:53:37.829Z,7.69
2017-11-15T03:54:18.410Z,7.69
2017-11-15T03:54:58.992Z,7.66
2017-11-15T03:55:39.561Z,7.72
2017-11-15T03:56:20.142Z,7.6
2017-11-15T03:57:00.734Z,7.72
2017-11-15T03:57:41.317Z,7.63
2017-11-15T03:58:21.890Z,7.72
2017-11-15T03:59:02.479Z,7.69
2017-11-15T03:59:43.053Z,7.72
2017-11-15T04:00:23.630Z,7.72
2017-11-15T04:01:04.213Z,7.73
2017-11-15T04:01:44.834Z,7.7
2017-11-15T04:02:25.429Z,7.76
2017-11-15T04:03:06.039Z,7.7
2017-11-15T04:03:46.632Z,7.77
2017-11-15T04:04:27.209Z,7.76
2017-11-15T04:05:07.780Z,7.69
2017-11-15T04:05:48.368Z,7.79
2017-11-15T04:06:28.967Z,7.73
2017-11-15T04:07:09.559Z,7.75
2017-11-15T04:07:50.196Z,7.77
2017-11-15T04:08:30.773Z,7.76
2017-11-15T04:09:11.375Z,7.76
2017-11-15T04:09:51.954Z,7.75
2017-11-15T04:10:32.520Z,7.72
2017-11-15T04:11:13.097Z,7.76
2017-11-15T04:11:53.673Z,7.76
2017-11-15T04:12:34.260Z,7.76
2017-11-15T04:13:14.876Z,7.75
2017-11-15T04:13:55.478Z,7.76
2017-11-15T04:14:36.088Z,7.73
2017-11-15T04:15:16.698Z,7.75
2017-11-15T04:15:57.294Z,7.75
2017-11-15T04:16:37.901Z,7.75
2017-11-15T04:17:18.486Z,7.73
2017-11-15T04:17:59.127Z,7.75
2017-11-15T04:18:39.720Z,7.7
2017-11-15T04:19:20.343Z,7.72
2017-11-15T04:20:00.938Z,7.73
2017-11-15T04:20:41.523Z,7.77
2017-11-15T04:21:22.110Z,7.8
2017-11-15T04:22:02.684Z,7.87
2017-11-15T04:22:43.246Z,7.8
2017-11-15T04:23:23.816Z,7.76
2017-11-15T04:24:04.388Z,7.73
2017-11-15T04:24:44.973Z,7.77
2017-11-15T04:25:25.558Z,7.88
2017-11-15T04:26:06.187Z,7.83
2017-11-15T04:26:46.808Z,7.91
2017-11-15T04:27:27.376Z,7.76
2017-11-15T04:28:07.939Z,7.82
2017-11-15T04:28:48.508Z,7.82
2017-11-15T04:29:29.113Z,7.82
2017-11-15T04:30:09.692Z,7.87
2017-11-15T04:30:50.301Z,7.87
2017-11-15T04:31:30.906Z,7.8
2017-11-15T04:32:11.472Z,7.77
2017-11-15T04:32:52.060Z,7.83
2017-11-15T04:33:32.671Z,7.9
2017-11-15T04:34:13.233Z,7.77
2017-11-15T04:34:53.822Z,7.77
2017-11-15T04:35:34.401Z,7.91
2017-11-15T04:36:15.017Z,7.88
2017-11-15T04:36:55.643Z,7.93
2017-11-15T04:37:36.257Z,7.83
2017-11-15T04:38:16.870Z,7.93
2017-11-15T04:38:57.464Z,7.8
2017-11-15T04:39:38.077Z,7.83
2017-11-15T04:40:18.690Z,7.93
2017-11-15T04:40:59.288Z,7.91
2017-11-15T04:41:39.874Z,7.94
2017-11-15T04:42:20.463Z,7.88
2017-11-15T04:43:01.072Z,7.88
2017-11-15T04:43:41.658Z,7.87
2017-11-15T04:44:22.227Z,7.87
2017-11-15T04:45:02.795Z,7.93
2017-11-15T04:45:43.357Z,7.94
2017-11-15T04:46:23.965Z,7.91
2017-11-15T04:47:04.540Z,7.9
2017-11-15T04:47:45.122Z,7.87
2017-11-15T04:48:25.699Z,7.91
2017-11-15T04:49:06.281Z,7.88
2017-11-15T04:49:46.848Z,7.91
2017-11-15T04:50:27.443Z,7.77
2017-11-15T04:51:08.028Z,7.9
2017-11-15T04:51:48.588Z,7.88
2017-11-15T04:52:29.159Z,7.9
2017-11-15T04:53:09.755Z,7.88
2017-11-15T04:53:50.349Z,7.87
2017-11-15T04:54:30.920Z,7.79
2017-11-15T04:55:11.508Z,7.8
2017-11-15T04:55:52.082Z,7.79
2017-11-15T04:56:32.671Z,7.83
2017-11-15T04:57:13.236Z,7.83
2017-11-15T04:57:53.819Z,7.82
2017-11-15T04:58:34.389Z,7.72
2017-11-15T04:59:14.977Z,7.73
2017-11-15T04:59:55.552Z,7.77
2017-11-15T05:00:36.123Z,7.75
2017-11-15T05:01:16.709Z,7.76
2017-11-15T05:01:57.307Z,7.82
2017-11-15T05:02:37.892Z,7.73
2017-11-15T05:03:18.520Z,7.82
2017-11-15T05:03:59.122Z,7.82
2017-11-15T05:04:39.679Z,7.85
2017-11-15T05:05:20.248Z,7.88
2017-11-15T05:06:00.816Z,7.79
2017-11-15T05:06:41.395Z,7.83
2017-11-15T05:07:21.973Z,7.85
2017-11-15T05:08:02.531Z,7.82
2017-11-15T05:08:43.103Z,7.83
2017-11-15T05:09:23.676Z,7.9
2017-11-15T05:10:04.250Z,7.87
2017-11-15T05:10:44.800Z,7.8
2017-11-15T05:11:25.372Z,7.87
2017-11-15T05:12:05.959Z,7.79
2017-11-15T05:12:46.508Z,7.91
2017-11-15T05:13:27.071Z,7.82
2017-11-15T05:14:07.648Z,7.83
2017-11-15T05:14:48.209Z,7.83
2017-11-15T05:15:28.776Z,7.77
2017-11-15T05:16:09.352Z,7.8
2017-11-15T05:16:49.925Z,7.88
2017-11-15T05:17:30.491Z,7.79
2017-11-15T05:18:11.091Z,7.79
2017-11-15T05:18:51.655Z,7.83
2017-11-15T05:19:32.229Z,7.79
2017-11-15T05:20:12.803Z,7.85
2017-11-15T05:20:53.382Z,7.75
2017-11-15T05:21:33.942Z,7.85
2017-11-15T05:22:14.513Z,7.76
2017-11-15T05:22:55.117Z,7.82
2017-11-15T05:23:35.699Z,7.82
2017-11-15T05:24:16.278Z,7.76
2017-11-15T05:24:56.840Z,7.82
2017-11-15T05:25:37.410Z,7.79
2017-11-15T05:26:17.980Z,7.75
2017-11-15T05:26:58.556Z,7.8
2017-11-15T05:27:39.276Z,7.79
2017-11-15T05:28:20.147Z,7.88
2017-11-15T05:29:00.770Z,7.8
2017-11-15T05:29:41.345Z,7.93
2017-11-15T05:30:21.915Z,7.77
2017-11-15T05:31:02.508Z,7.8
2017-11-15T05:31:43.079Z,7.88
2017-11-15T05:32:23.648Z,7.91
2017-11-15T05:33:04.211Z,7.88
2017-11-15T05:33:44.784Z,7.87
2017-11-15T05:34:25.358Z,7.95
2017-11-15T05:35:05.922Z,7.91
2017-11-15T05:35:46.498Z,7.79
2017-11-15T05:36:27.101Z,7.93
2017-11-15T05:37:07.689Z,7.77
2017-11-15T05:37:48.258Z,7.87
2017-11-15T05:38:28.816Z,7.85
2017-11-15T05:39:09.382Z,7.87
2017-11-15T05:39:49.970Z,7.82
2017-11-15T05:40:30.543Z,7.85
2017-11-15T05:41:11.145Z,7.75
2017-11-15T05:41:51.723Z,7.77
2017-11-15T05:42:32.325Z,7.85
2017-11-15T05:43:12.918Z,7.88
2017-11-15T05:43:53.545Z,7.77
2017-11-15T05:44:34.107Z,7.9
2017-11-15T05:45:14.686Z,7.91
2017-11-15T05:45:55.246Z,7.79
2017-11-15T05:46:35.852Z,7.91
2017-11-15T05:47:16.426Z,7.85
2017-11-15T05:47:56.987Z,7.87
2017-11-15T05:48:37.578Z,7.82
2017-11-15T05:49:18.166Z,7.85
2017-11-15T05:49:58.746Z,7.85
2017-11-15T05:50:39.325Z,7.85
2017-11-15T05:51:19.878Z,7.9
2017-11-15T05:52:00.459Z,7.9
2017-11-15T05:52:41.023Z,7.97
2017-11-15T05:53:21.612Z,7.85
2017-11-15T05:54:02.210Z,7.93
2017-11-15T05:54:42.776Z,7.87
2017-11-15T05:55:23.347Z,7.97
2017-11-15T05:56:03.909Z,7.97
2017-11-15T05:56:44.486Z,7.95
2017-11-15T05:57:25.102Z,8
2017-11-15T05:58:05.696Z,7.97
2017-11-15T05:58:46.265Z,8.05
2017-11-15T05:59:26.831Z,7.94
2017-11-15T06:00:07.405Z,7.9
2017-11-15T06:00:47.981Z,7.97
2017-11-15T06:01:28.551Z,7.95
2017-11-15T06:02:09.158Z,7.91
2017-11-15T06:02:49.735Z,8
2017-11-15T06:03:30.307Z,8.01
2017-11-15T06:04:10.888Z,8.01
2017-11-15T06:04:51.460Z,8.01
2017-11-15T06:05:32.063Z,8.03
2017-11-15T06:06:12.645Z,8.1
2017-11-15T06:06:53.228Z,8.05
2017-11-15T06:07:33.829Z,8.06
2017-11-15T06:08:14.395Z,8.05
2017-11-15T06:08:55.594Z,8.03
2017-11-15T06:09:36.168Z,8.05
2017-11-15T06:10:16.807Z,7.97
2017-11-15T06:10:57.361Z,7.93
2017-11-15T06:11:37.974Z,7.91
2017-11-15T06:12:18.476Z,7.98
2017-11-15T06:12:59.070Z,7.85
2017-11-15T06:13:39.735Z,7.87
2017-11-15T06:14:20.243Z,7.9
2017-11-15T06:15:00.854Z,7.83
2017-11-15T06:15:41.353Z,7.83
2017-11-15T06:16:21.997Z,7.94
2017-11-15T06:17:02.632Z,7.9
2017-11-15T06:17:43.185Z,7.97
2017-11-15T06:18:23.707Z,7.91
2017-11-15T06:19:04.253Z,7.97
2017-11-15T06:19:44.946Z,7.85
2017-11-15T06:20:25.456Z,7.95
2017-11-15T06:21:06.057Z,7.85
2017-11-15T06:21:46.623Z,7.97
2017-11-15T06:22:27.320Z,7.97
2017-11-15T06:23:07.872Z,7.85
2017-11-15T06:23:48.456Z,7.85
2017-11-15T06:24:28.993Z,7.88
2017-11-15T06:25:09.481Z,8
2017-11-15T06:25:50.067Z,7.94
2017-11-15T06:26:30.764Z,7.94
2017-11-15T06:27:11.209Z,7.87
2017-11-15T06:27:51.852Z,7.98
2017-11-15T06:28:32.550Z,8.03
2017-11-15T06:29:13.115Z,8.13
2017-11-15T06:29:53.731Z,8.26
2017-11-15T06:30:34.317Z,8.42
2017-11-15T06:31:14.814Z,8.45
2017-11-15T06:31:55.472Z,8.61
2017-11-15T06:32:36.002Z,8.81
2017-11-15T06:33:16.630Z,8.97
2017-11-15T06:33:57.286Z,9
2017-11-15T06:34:37.865Z,9.14
2017-11-15T06:35:18.455Z,9.28
2017-11-15T06:35:58.951Z,9.48
2017-11-15T06:36:39.712Z,9.55
2017-11-15T06:37:20.263Z,9.61
2017-11-15T06:38:00.703Z,9.72
2017-11-15T06:38:41.269Z,9.86
2017-11-15T06:39:21.827Z,9.91
2017-11-15T06:40:02.406Z,10.07
2017-11-15T06:40:42.974Z,10.19
2017-11-15T06:41:23.672Z,10.22
2017-11-15T06:42:04.341Z,10.34
2017-11-15T06:42:44.928Z,10.38
2017-11-15T06:43:25.480Z,10.51
2017-11-15T06:44:06.544Z,10.56
2017-11-15T06:44:47.235Z,10.6
2017-11-15T06:45:27.798Z,10.64
2017-11-15T06:46:08.396Z,10.64
2017-11-15T06:46:48.945Z,10.71
2017-11-15T06:47:29.510Z,10.74
2017-11-15T06:48:10.082Z,10.78
2017-11-15T06:48:50.612Z,10.87
2017-11-15T06:49:31.188Z,10.82
2017-11-15T06:50:11.752Z,10.87
2017-11-15T06:50:52.346Z,10.81
2017-11-15T06:51:32.921Z,10.87
2017-11-15T06:52:13.711Z,10.89
2017-11-15T06:52:54.288Z,10.93
2017-11-15T06:53:34.904Z,11.04
2017-11-15T06:54:15.531Z,10.94
2017-11-15T06:54:56.130Z,11.07
2017-11-15T06:55:36.735Z,11.11
2017-11-15T06:56:17.340Z,11.12
2017-11-15T06:56:57.908Z,11.1
2017-11-15T06:57:38.474Z,11.15
2017-11-15T06:58:19.051Z,11.17
2017-11-15T06:58:59.619Z,11.23
2017-11-15T06:59:40.197Z,11.25
2017-11-15T07:00:20.763Z,11.36
2017-11-15T07:01:01.327Z,11.36
2017-11-15T07:01:41.910Z,11.37
2017-11-15T07:02:22.493Z,11.36
2017-11-15T07:03:03.216Z,11.44
2017-11-15T07:03:44.485Z,11.44
2017-11-15T07:04:25.060Z,11.33
2017-11-15T07:05:05.631Z,11.51
2017-11-15T07:05:46.217Z,11.45
2017-11-15T07:06:26.813Z,11.5
2017-11-15T07:07:07.406Z,11.37
2017-11-15T07:07:47.995Z,11.36
2017-11-15T07:08:28.578Z,11.32
2017-11-15T07:09:09.200Z,11.25
2017-11-15T07:09:49.791Z,11.07
2017-11-15T07:10:30.743Z,10.94
2017-11-15T07:11:11.629Z,10.78
2017-11-15T07:11:52.217Z,10.71
2017-11-15T07:12:32.805Z,10.6
2017-11-15T07:13:13.387Z,10.31
2017-11-15T07:13:53.963Z,10.22
2017-11-15T07:14:34.577Z,10.15
2017-11-15T07:15:15.173Z,10.07
2017-11-15T07:15:55.740Z,9.94
2017-11-15T07:16:36.288Z,9.8
2017-11-15T07:17:16.864Z,9.69
2017-11-15T07:17:57.491Z,9.73
2017-11-15T07:18:38.064Z,9.61
2017-11-15T07:19:18.630Z,9.5
2017-11-15T07:19:59.231Z,9.5
2017-11-15T07:20:39.802Z,9.41
2017-11-15T07:21:20.376Z,9.36
2017-11-15T07:22:00.962Z,9.32
2017-11-15T07:22:41.564Z,9.25
2017-11-15T07:23:22.126Z,9.18
2017-11-15T07:24:02.776Z,9.11
2017-11-15T07:24:43.353Z,9.13
2017-11-15T07:25:23.924Z,9.1
2017-11-15T07:26:04.492Z,8.94
2017-11-15T07:26:45.085Z,8.92
2017-11-15T07:27:25.669Z,8.92
2017-11-15T07:28:06.245Z,8.92
2017-11-15T07:28:46.816Z,8.89
2017-11-15T07:29:27.389Z,8.92
2017-11-15T07:30:07.980Z,8.92
2017-11-15T07:30:48.559Z,8.89
2017-11-15T07:31:29.189Z,8.82
2017-11-15T07:32:09.770Z,8.74
2017-11-15T07:32:50.345Z,8.73
2017-11-15T07:33:30.939Z,8.79
2017-11-15T07:34:11.517Z,8.73
2017-11-15T07:34:52.074Z,8.76
2017-11-15T07:35:32.653Z,8.81
2017-11-15T07:36:13.272Z,8.74
2017-11-15T07:36:53.843Z,8.78
2017-11-15T07:37:34.433Z,8.73
2017-11-15T07:38:15.023Z,8.73
2017-11-15T07:38:55.610Z,8.71
2017-11-15T07:39:36.237Z,8.73
2017-11-15T07:40:16.814Z,8.81
2017-11-15T07:40:57.420Z,8.76
2017-11-15T07:41:37.979Z,8.78
2017-11-15T07:42:18.584Z,8.74
2017-11-15T07:42:59.160Z,8.78
2017-11-15T07:43:39.728Z,8.69
2017-11-15T07:44:20.309Z,8.63
2017-11-15T07:45:00.890Z,8.64
2017-11-15T07:45:41.452Z,8.63
2017-11-15T07:46:22.147Z,8.52
2017-11-15T07:47:02.726Z,8.55
2017-11-15T07:47:43.291Z,8.52
2017-11-15T07:48:23.894Z,8.44
2017-11-15T07:49:04.471Z,8.56
2017-11-15T07:49:45.063Z,8.48
2017-11-15T07:50:25.639Z,8.45
2017-11-15T07:51:06.216Z,8.45
2017-11-15T07:51:46.812Z,8.46
2017-11-15T07:52:27.398Z,8.42
2017-11-15T07:53:08.625Z,8.44
2017-11-15T07:53:48.570Z,8.38
2017-11-15T07:54:29.155Z,8.37
2017-11-15T07:55:09.841Z,8.45
2017-11-15T07:55:50.473Z,8.38
2017-11-15T07:56:31.065Z,8.42
2017-11-15T07:57:11.635Z,8.45
2017-11-15T07:57:52.220Z,8.42
2017-11-15T07:58:32.819Z,8.38
2017-11-15T07:59:13.390Z,8.34
2017-11-15T07:59:53.962Z,8.42
2017-11-15T08:00:34.631Z,8.37
2017-11-15T08:01:15.363Z,8.42
2017-11-15T08:01:55.972Z,8.38
2017-11-15T08:02:36.680Z,8.42
2017-11-15T08:03:17.266Z,8.52
2017-11-15T08:03:57.974Z,8.41
2017-11-15T08:04:38.601Z,8.44
2017-11-15T08:05:19.182Z,8.38
2017-11-15T08:05:59.746Z,8.46
2017-11-15T08:07:47.238Z,8.42
2017-11-15T08:08:27.805Z,8.51
2017-11-15T08:09:08.419Z,8.38
2017-11-15T08:09:48.975Z,8.41
2017-11-15T08:10:29.541Z,8.37
2017-11-15T08:11:10.111Z,8.52
2017-11-15T08:11:50.683Z,8.38
2017-11-15T08:12:31.257Z,8.52
2017-11-15T08:13:11.834Z,8.44
2017-11-15T08:13:52.402Z,8.53
2017-11-15T08:14:32.975Z,8.46
2017-11-15T08:15:13.564Z,8.48
2017-11-15T08:15:54.174Z,8.51
2017-11-15T08:16:34.722Z,8.44
2017-11-15T08:17:15.284Z,8.42
2017-11-15T08:17:55.870Z,8.44
2017-11-15T08:18:36.443Z,8.46
2017-11-15T08:19:17.027Z,8.38
2017-11-15T08:19:57.596Z,8.42
2017-11-15T08:20:38.156Z,8.44
2017-11-15T08:21:18.751Z,8.38
2017-11-15T08:21:59.617Z,8.51
2017-11-15T08:22:40.345Z,8.38
2017-11-15T08:23:20.926Z,8.42
2017-11-15T08:24:01.491Z,8.34
2017-11-15T08:24:42.080Z,8.31
2017-11-15T08:25:22.668Z,8.3
2017-11-15T08:26:03.248Z,8.36
2017-11-15T08:26:43.835Z,8.45
2017-11-15T08:27:24.424Z,8.34
2017-11-15T08:28:04.993Z,8.33
2017-11-15T08:28:45.582Z,8.38
2017-11-15T08:29:26.165Z,8.33
2017-11-15T08:30:06.736Z,8.38
2017-11-15T08:30:47.309Z,8.41
2017-11-15T08:31:27.926Z,8.33
2017-11-15T08:32:08.510Z,8.33
2017-11-15T08:32:49.092Z,8.31
2017-11-15T08:33:29.681Z,8.36
2017-11-15T08:34:10.257Z,8.34
2017-11-15T08:34:50.830Z,8.34
2017-11-15T08:35:32.099Z,8.36
2017-11-15T08:36:12.668Z,8.3
2017-11-15T08:36:53.254Z,8.41
2017-11-15T08:37:33.834Z,8.33
2017-11-15T08:38:14.444Z,8.42
2017-11-15T08:38:55.033Z,8.28
2017-11-15T08:39:35.610Z,8.34
2017-11-15T08:40:16.228Z,8.36
2017-11-15T08:40:56.815Z,8.36
2017-11-15T08:41:37.398Z,8.37
2017-11-15T08:42:17.998Z,8.34
2017-11-15T08:42:58.600Z,8.36
2017-11-15T08:43:39.239Z,8.41
2017-11-15T08:44:19.828Z,8.3
2017-11-15T08:45:00.436Z,8.36
2017-11-15T08:45:41.000Z,8.42
2017-11-15T08:46:21.602Z,8.46
2017-11-15T08:47:02.167Z,8.31
2017-11-15T08:47:42.752Z,8.41
2017-11-15T08:48:23.350Z,8.38
2017-11-15T08:49:03.938Z,8.44
2017-11-15T08:49:44.568Z,8.44
2017-11-15T08:50:25.156Z,8.44
2017-11-15T08:51:05.751Z,8.42
2017-11-15T08:51:46.344Z,8.46
2017-11-15T08:52:26.959Z,8.38
2017-11-15T08:53:07.527Z,8.45
2017-11-15T08:53:48.114Z,8.38
2017-11-15T08:54:28.691Z,8.44
2017-11-15T08:55:09.266Z,8.38
2017-11-15T08:55:49.850Z,8.41
2017-11-15T08:56:30.565Z,8.36
2017-11-15T08:57:11.884Z,8.41
2017-11-15T08:57:52.576Z,8.45
2017-11-15T08:58:33.256Z,8.49
2017-11-15T08:59:14.003Z,8.38
2017-11-15T08:59:54.591Z,8.44
2017-11-15T09:00:35.178Z,8.51
2017-11-15T09:01:15.761Z,8.46
2017-11-15T09:01:56.575Z,8.38
2017-11-15T09:02:37.148Z,8.36